sensor_id;sensor_type;location;lat;lon;timestamp;temperature;humidity
32839;DHT22;19182;41.820;12.808;2023-04-08T00:00:15;7.60;99.90
32839;DHT22;19182;41.820;12.808;2023-04-08T00:02:42;7.60;99.90
32839;DHT22;19182;41.820;12.808;2023-04-08T00:05:09;7.60;99.90
32839;DHT22;19182;41.820;12.808;2023-04-08T00:07:38;7.60;99.90
32839;DHT22;19182;41.820;12.808;2023-04-08T00:10:04;7.60;99.90
32839;DHT22;19182;41.820;12.808;2023-04-08T00:12:32;7.60;99.90
32839;DHT22;19182;41.820;12.808;2023-04-08T00:14:59;7.70;99.90
32839;DHT22;19182;41.820;12.808;2023-04-08T00:17:25;7.70;99.90
32839;DHT22;19182;41.820;12.808;2023-04-08T00:19:51;7.70;99.90
32839;DHT22;19182;41.820;12.808;2023-04-08T00:22:18;7.70;99.90
32839;DHT22;19182;41.820;12.808;2023-04-08T00:24:44;7.80;99.90
32839;DHT22;19182;41.820;12.808;2023-04-08T00:27:10;7.70;99.90
32839;DHT22;19182;41.820;12.808;2023-04-08T00:29:36;7.80;99.90
32839;DHT22;19182;41.820;12.808;2023-04-08T00:32:02;7.80;99.90
32839;DHT22;19182;41.820;12.808;2023-04-08T00:34:28;7.80;99.90
32839;DHT22;19182;41.820;12.808;2023-04-08T00:36:57;7.80;99.90
32839;DHT22;19182;41.820;12.808;2023-04-08T00:39:22;7.80;99.90
32839;DHT22;19182;41.820;12.808;2023-04-08T00:41:48;5.00;99.90
32839;DHT22;19182;41.820;12.808;2023-04-08T00:44:14;7.60;99.90
32839;DHT22;19182;41.820;12.808;2023-04-08T00:46:40;7.60;99.90
32839;DHT22;19182;41.820;12.808;2023-04-08T00:49:06;7.60;99.90
32839;DHT22;19182;41.820;12.808;2023-04-08T00:51:33;7.10;99.90
32839;DHT22;19182;41.820;12.808;2023-04-08T00:54:01;7.50;99.90
32839;DHT22;19182;41.820;12.808;2023-04-08T00:56:31;7.50;99.90
32839;DHT22;19182;41.820;12.808;2023-04-08T00:58:59;7.60;99.90
32839;DHT22;19182;41.820;12.808;2023-04-08T01:01:51;7.50;99.90
32839;DHT22;19182;41.820;12.808;2023-04-08T01:06:49;7.40;99.90
32839;DHT22;19182;41.820;12.808;2023-04-08T01:09:18;7.40;99.90
32839;DHT22;19182;41.820;12.808;2023-04-08T01:11:45;7.40;99.90
32839;DHT22;19182;41.820;12.808;2023-04-08T01:14:20;7.30;99.90
32839;DHT22;19182;41.820;12.808;2023-04-08T01:16:48;7.30;99.90
32839;DHT22;19182;41.820;12.808;2023-04-08T01:19:26;7.30;99.90
32839;DHT22;19182;41.820;12.808;2023-04-08T01:21:53;7.30;99.90
32839;DHT22;19182;41.820;12.808;2023-04-08T01:24:30;7.30;99.90
32839;DHT22;19182;41.820;12.808;2023-04-08T01:26:58;7.20;99.90
32839;DHT22;19182;41.820;12.808;2023-04-08T01:29:27;7.30;99.90
32839;DHT22;19182;41.820;12.808;2023-04-08T01:31:54;7.30;99.90
32839;DHT22;19182;41.820;12.808;2023-04-08T01:34:21;7.20;99.90
32839;DHT22;19182;41.820;12.808;2023-04-08T01:36:48;7.30;99.90
32839;DHT22;19182;41.820;12.808;2023-04-08T01:39:16;7.30;99.90
32839;DHT22;19182;41.820;12.808;2023-04-08T01:41:45;7.30;99.90
32839;DHT22;19182;41.820;12.808;2023-04-08T01:44:13;7.40;99.90
32839;DHT22;19182;41.820;12.808;2023-04-08T01:46:41;7.40;99.90
32839;DHT22;19182;41.820;12.808;2023-04-08T01:49:08;7.50;99.90
32839;DHT22;19182;41.820;12.808;2023-04-08T01:51:37;7.40;99.90
32839;DHT22;19182;41.820;12.808;2023-04-08T01:54:03;5.20;99.90
32839;DHT22;19182;41.820;12.808;2023-04-08T01:56:34;7.50;99.90
32839;DHT22;19182;41.820;12.808;2023-04-08T01:59:02;7.50;99.90
32839;DHT22;19182;41.820;12.808;2023-04-08T02:01:31;7.40;99.90
32839;DHT22;19182;41.820;12.808;2023-04-08T02:04:01;7.40;99.90
32839;DHT22;19182;41.820;12.808;2023-04-08T02:06:29;7.30;99.90
32839;DHT22;19182;41.820;12.808;2023-04-08T02:08:55;7.30;99.90
32839;DHT22;19182;41.820;12.808;2023-04-08T02:11:21;7.20;99.90
32839;DHT22;19182;41.820;12.808;2023-04-08T02:13:47;7.30;99.90
32839;DHT22;19182;41.820;12.808;2023-04-08T02:16:38;7.10;99.90
32839;DHT22;19182;41.820;12.808;2023-04-08T02:19:13;7.10;99.90
32839;DHT22;19182;41.820;12.808;2023-04-08T02:21:46;7.10;99.90
32839;DHT22;19182;41.820;12.808;2023-04-08T02:24:15;7.00;99.90
32839;DHT22;19182;41.820;12.808;2023-04-08T02:26:43;7.10;99.90
32839;DHT22;19182;41.820;12.808;2023-04-08T02:29:12;7.10;99.90
32839;DHT22;19182;41.820;12.808;2023-04-08T02:31:41;7.00;99.90
32839;DHT22;19182;41.820;12.808;2023-04-08T02:34:09;7.00;99.90
32839;DHT22;19182;41.820;12.808;2023-04-08T02:36:36;7.00;99.90
32839;DHT22;19182;41.820;12.808;2023-04-08T02:39:03;6.90;99.90
32839;DHT22;19182;41.820;12.808;2023-04-08T02:41:30;6.90;99.90
32839;DHT22;19182;41.820;12.808;2023-04-08T02:43:56;7.00;99.90
32839;DHT22;19182;41.820;12.808;2023-04-08T02:46:22;7.00;99.90
32839;DHT22;19182;41.820;12.808;2023-04-08T02:48:48;7.00;99.90
32839;DHT22;19182;41.820;12.808;2023-04-08T02:51:14;7.00;99.90
32839;DHT22;19182;41.820;12.808;2023-04-08T02:53:41;6.90;99.90
32839;DHT22;19182;41.820;12.808;2023-04-08T02:56:10;7.00;99.90
32839;DHT22;19182;41.820;12.808;2023-04-08T02:58:36;7.00;99.90
32839;DHT22;19182;41.820;12.808;2023-04-08T03:01:03;7.00;99.90
32839;DHT22;19182;41.820;12.808;2023-04-08T03:03:29;7.10;99.90
32839;DHT22;19182;41.820;12.808;2023-04-08T03:05:57;7.00;99.90
32839;DHT22;19182;41.820;12.808;2023-04-08T03:08:24;7.10;99.90
32839;DHT22;19182;41.820;12.808;2023-04-08T03:10:50;7.10;99.90
32839;DHT22;19182;41.820;12.808;2023-04-08T03:13:19;7.10;99.90
32839;DHT22;19182;41.820;12.808;2023-04-08T03:15:45;7.10;99.90
32839;DHT22;19182;41.820;12.808;2023-04-08T03:18:13;7.10;99.90
32839;DHT22;19182;41.820;12.808;2023-04-08T03:20:40;7.00;99.90
32839;DHT22;19182;41.820;12.808;2023-04-08T03:23:07;7.00;99.90
32839;DHT22;19182;41.820;12.808;2023-04-08T03:25:34;6.90;99.90
32839;DHT22;19182;41.820;12.808;2023-04-08T03:28:00;7.00;99.90
32839;DHT22;19182;41.820;12.808;2023-04-08T03:30:26;7.00;99.90
32839;DHT22;19182;41.820;12.808;2023-04-08T03:32:52;6.90;99.90
32839;DHT22;19182;41.820;12.808;2023-04-08T03:35:18;6.90;99.90
32839;DHT22;19182;41.820;12.808;2023-04-08T03:37:44;6.90;99.90
32839;DHT22;19182;41.820;12.808;2023-04-08T03:40:11;6.80;99.90
32839;DHT22;19182;41.820;12.808;2023-04-08T03:42:37;6.70;99.90
32839;DHT22;19182;41.820;12.808;2023-04-08T03:45:03;6.80;99.90
32839;DHT22;19182;41.820;12.808;2023-04-08T03:47:29;6.70;99.90
32839;DHT22;19182;41.820;12.808;2023-04-08T03:49:55;7.90;99.90
32839;DHT22;19182;41.820;12.808;2023-04-08T03:52:22;6.60;99.90
32839;DHT22;19182;41.820;12.808;2023-04-08T03:54:50;6.50;99.90
32839;DHT22;19182;41.820;12.808;2023-04-08T03:57:17;6.50;99.90
32839;DHT22;19182;41.820;12.808;2023-04-08T03:59:43;6.50;99.90
32839;DHT22;19182;41.820;12.808;2023-04-08T04:02:11;6.50;99.90
32839;DHT22;19182;41.820;12.808;2023-04-08T04:04:37;6.40;99.90
32839;DHT22;19182;41.820;12.808;2023-04-08T04:07:03;6.70;99.90
32839;DHT22;19182;41.820;12.808;2023-04-08T04:09:30;6.70;99.90
32839;DHT22;19182;41.820;12.808;2023-04-08T04:11:56;6.70;99.90
32839;DHT22;19182;41.820;12.808;2023-04-08T04:14:23;6.80;99.90
32839;DHT22;19182;41.820;12.808;2023-04-08T04:16:50;6.80;99.90
32839;DHT22;19182;41.820;12.808;2023-04-08T04:19:17;6.80;99.90
32839;DHT22;19182;41.820;12.808;2023-04-08T04:21:43;6.70;99.90
32839;DHT22;19182;41.820;12.808;2023-04-08T04:24:09;6.70;99.90
32839;DHT22;19182;41.820;12.808;2023-04-08T04:26:36;6.60;99.90
32839;DHT22;19182;41.820;12.808;2023-04-08T04:29:03;6.50;99.90
32839;DHT22;19182;41.820;12.808;2023-04-08T04:31:28;6.50;99.90
32839;DHT22;19182;41.820;12.808;2023-04-08T04:33:55;6.40;99.90
32839;DHT22;19182;41.820;12.808;2023-04-08T04:36:22;6.50;99.90
32839;DHT22;19182;41.820;12.808;2023-04-08T04:38:50;6.40;99.90
32839;DHT22;19182;41.820;12.808;2023-04-08T04:41:16;6.50;99.90
32839;DHT22;19182;41.820;12.808;2023-04-08T04:43:43;6.50;99.90
32839;DHT22;19182;41.820;12.808;2023-04-08T04:46:10;6.40;99.90
32839;DHT22;19182;41.820;12.808;2023-04-08T04:48:36;6.50;99.90
32839;DHT22;19182;41.820;12.808;2023-04-08T04:51:03;6.50;99.90
32839;DHT22;19182;41.820;12.808;2023-04-08T04:53:30;6.50;99.90
32839;DHT22;19182;41.820;12.808;2023-04-08T04:55:57;6.60;99.90
32839;DHT22;19182;41.820;12.808;2023-04-08T04:58:28;6.60;99.90
32839;DHT22;19182;41.820;12.808;2023-04-08T05:00:54;6.70;99.90
32839;DHT22;19182;41.820;12.808;2023-04-08T05:03:20;6.80;99.90
32839;DHT22;19182;41.820;12.808;2023-04-08T05:05:51;6.80;99.90
32839;DHT22;19182;41.820;12.808;2023-04-08T05:08:17;6.80;99.90
32839;DHT22;19182;41.820;12.808;2023-04-08T05:10:43;6.80;99.90
32839;DHT22;19182;41.820;12.808;2023-04-08T05:13:09;7.50;99.90
32839;DHT22;19182;41.820;12.808;2023-04-08T05:15:35;6.80;99.90
32839;DHT22;19182;41.820;12.808;2023-04-08T05:18:02;6.70;99.90
32839;DHT22;19182;41.820;12.808;2023-04-08T05:20:29;6.80;99.90
32839;DHT22;19182;41.820;12.808;2023-04-08T05:22:54;6.80;99.90
32839;DHT22;19182;41.820;12.808;2023-04-08T05:25:20;6.70;99.90
32839;DHT22;19182;41.820;12.808;2023-04-08T05:27:46;6.70;99.90
32839;DHT22;19182;41.820;12.808;2023-04-08T05:30:12;6.70;99.90
32839;DHT22;19182;41.820;12.808;2023-04-08T05:32:38;6.70;99.90
32839;DHT22;19182;41.820;12.808;2023-04-08T05:35:04;6.70;99.90
32839;DHT22;19182;41.820;12.808;2023-04-08T05:37:30;6.70;99.90
32839;DHT22;19182;41.820;12.808;2023-04-08T05:39:57;6.70;99.90
32839;DHT22;19182;41.820;12.808;2023-04-08T05:42:23;6.70;99.90
32839;DHT22;19182;41.820;12.808;2023-04-08T05:44:50;6.80;99.90
32839;DHT22;19182;41.820;12.808;2023-04-08T05:47:16;6.80;99.90
32839;DHT22;19182;41.820;12.808;2023-04-08T05:49:43;6.80;99.90
32839;DHT22;19182;41.820;12.808;2023-04-08T05:52:09;6.80;99.90
32839;DHT22;19182;41.820;12.808;2023-04-08T05:54:37;6.80;99.90
32839;DHT22;19182;41.820;12.808;2023-04-08T05:57:04;6.80;99.90
32839;DHT22;19182;41.820;12.808;2023-04-08T05:59:30;6.70;99.90
32839;DHT22;19182;41.820;12.808;2023-04-08T06:01:56;6.60;99.90
32839;DHT22;19182;41.820;12.808;2023-04-08T06:04:23;6.50;99.90
32839;DHT22;19182;41.820;12.808;2023-04-08T06:06:49;6.50;99.90
32839;DHT22;19182;41.820;12.808;2023-04-08T06:09:15;6.50;99.90
32839;DHT22;19182;41.820;12.808;2023-04-08T06:11:41;6.50;99.90
32839;DHT22;19182;41.820;12.808;2023-04-08T06:14:07;6.50;99.90
32839;DHT22;19182;41.820;12.808;2023-04-08T06:16:32;6.50;99.90
32839;DHT22;19182;41.820;12.808;2023-04-08T06:18:59;6.40;99.90
32839;DHT22;19182;41.820;12.808;2023-04-08T06:21:26;6.40;99.90
32839;DHT22;19182;41.820;12.808;2023-04-08T06:23:53;6.40;99.90
32839;DHT22;19182;41.820;12.808;2023-04-08T06:26:19;6.30;99.90
32839;DHT22;19182;41.820;12.808;2023-04-08T06:28:45;6.30;99.90
32839;DHT22;19182;41.820;12.808;2023-04-08T06:31:12;6.30;99.90
32839;DHT22;19182;41.820;12.808;2023-04-08T06:33:37;6.20;99.90
32839;DHT22;19182;41.820;12.808;2023-04-08T06:36:04;6.20;99.90
32839;DHT22;19182;41.820;12.808;2023-04-08T06:38:33;6.10;99.90
32839;DHT22;19182;41.820;12.808;2023-04-08T06:41:02;6.10;99.90
32839;DHT22;19182;41.820;12.808;2023-04-08T06:43:29;6.10;99.90
32839;DHT22;19182;41.820;12.808;2023-04-08T06:45:55;6.10;99.90
32839;DHT22;19182;41.820;12.808;2023-04-08T06:48:21;6.00;99.90
32839;DHT22;19182;41.820;12.808;2023-04-08T06:50:48;6.00;99.90
32839;DHT22;19182;41.820;12.808;2023-04-08T06:53:15;5.90;99.90
32839;DHT22;19182;41.820;12.808;2023-04-08T06:55:41;5.90;99.90
32839;DHT22;19182;41.820;12.808;2023-04-08T06:58:07;5.80;99.90
32839;DHT22;19182;41.820;12.808;2023-04-08T07:00:35;5.80;99.90
32839;DHT22;19182;41.820;12.808;2023-04-08T07:05:27;5.80;99.90
32839;DHT22;19182;41.820;12.808;2023-04-08T07:15:17;5.60;99.90
32839;DHT22;19182;41.820;12.808;2023-04-08T07:20:12;5.60;99.90
32839;DHT22;19182;41.820;12.808;2023-04-08T07:22:40;5.70;99.90
32839;DHT22;19182;41.820;12.808;2023-04-08T07:25:07;5.70;99.90
32839;DHT22;19182;41.820;12.808;2023-04-08T07:30:00;5.60;99.90
32839;DHT22;19182;41.820;12.808;2023-04-08T07:34:52;5.80;99.90
32839;DHT22;19182;41.820;12.808;2023-04-08T07:37:21;5.90;99.90
32839;DHT22;19182;41.820;12.808;2023-04-08T07:39:47;6.00;99.90
32839;DHT22;19182;41.820;12.808;2023-04-08T07:42:12;6.10;99.90
32839;DHT22;19182;41.820;12.808;2023-04-08T07:49:32;6.20;99.90
32839;DHT22;19182;41.820;12.808;2023-04-08T07:51:58;6.10;99.90
32839;DHT22;19182;41.820;12.808;2023-04-08T07:54:24;6.20;99.90
32839;DHT22;19182;41.820;12.808;2023-04-08T08:01:45;6.30;99.90
32839;DHT22;19182;41.820;12.808;2023-04-08T08:04:12;6.30;99.90
32839;DHT22;19182;41.820;12.808;2023-04-08T08:06:38;6.90;99.90
32839;DHT22;19182;41.820;12.808;2023-04-08T08:09:05;6.40;99.90
32839;DHT22;19182;41.820;12.808;2023-04-08T08:11:31;6.50;99.90
32839;DHT22;19182;41.820;12.808;2023-04-08T08:13:58;6.70;99.90
32839;DHT22;19182;41.820;12.808;2023-04-08T08:16:27;7.20;99.90
32839;DHT22;19182;41.820;12.808;2023-04-08T08:18:53;7.20;99.90
32839;DHT22;19182;41.820;12.808;2023-04-08T08:21:19;7.60;99.90
32839;DHT22;19182;41.820;12.808;2023-04-08T08:23:44;8.00;99.90
32839;DHT22;19182;41.820;12.808;2023-04-08T08:26:11;8.50;99.90
32839;DHT22;19182;41.820;12.808;2023-04-08T08:28:38;8.80;99.90
32839;DHT22;19182;41.820;12.808;2023-04-08T08:36:00;9.30;99.90
32839;DHT22;19182;41.820;12.808;2023-04-08T08:38:26;9.30;99.90
32839;DHT22;19182;41.820;12.808;2023-04-08T08:40:57;10.00;99.90
32839;DHT22;19182;41.820;12.808;2023-04-08T08:43:25;9.70;99.90
32839;DHT22;19182;41.820;12.808;2023-04-08T08:45:52;9.70;99.90
32839;DHT22;19182;41.820;12.808;2023-04-08T08:50:44;10.00;99.90
32839;DHT22;19182;41.820;12.808;2023-04-08T08:53:11;12.60;99.90
32839;DHT22;19182;41.820;12.808;2023-04-08T08:55:37;10.50;99.90
32839;DHT22;19182;41.820;12.808;2023-04-08T08:58:05;10.40;99.90
32839;DHT22;19182;41.820;12.808;2023-04-08T09:00:39;10.50;99.90
32839;DHT22;19182;41.820;12.808;2023-04-08T09:03:19;10.80;99.90
32839;DHT22;19182;41.820;12.808;2023-04-08T09:05:53;10.80;99.90
32839;DHT22;19182;41.820;12.808;2023-04-08T09:08:35;10.70;99.90
32839;DHT22;19182;41.820;12.808;2023-04-08T09:11:21;10.80;99.90
32839;DHT22;19182;41.820;12.808;2023-04-08T09:13:47;10.80;99.90
32839;DHT22;19182;41.820;12.808;2023-04-08T09:16:14;10.60;99.90
32839;DHT22;19182;41.820;12.808;2023-04-08T09:18:43;10.80;99.90
32839;DHT22;19182;41.820;12.808;2023-04-08T09:21:15;10.90;99.90
32839;DHT22;19182;41.820;12.808;2023-04-08T09:23:51;11.30;99.90
32839;DHT22;19182;41.820;12.808;2023-04-08T09:26:23;11.50;99.90
32839;DHT22;19182;41.820;12.808;2023-04-08T09:29:06;11.60;99.90
32839;DHT22;19182;41.820;12.808;2023-04-08T09:31:34;11.40;99.90
32839;DHT22;19182;41.820;12.808;2023-04-08T09:34:24;11.60;99.90
32839;DHT22;19182;41.820;12.808;2023-04-08T09:36:52;11.50;99.90
32839;DHT22;19182;41.820;12.808;2023-04-08T09:39:20;11.90;99.90
32839;DHT22;19182;41.820;12.808;2023-04-08T09:41:49;11.90;99.90
32839;DHT22;19182;41.820;12.808;2023-04-08T09:44:18;11.90;99.90
32839;DHT22;19182;41.820;12.808;2023-04-08T09:47:40;12.00;99.90
32839;DHT22;19182;41.820;12.808;2023-04-08T09:50:01;12.20;99.90
32839;DHT22;19182;41.820;12.808;2023-04-08T09:52:45;12.10;99.90
32839;DHT22;19182;41.820;12.808;2023-04-08T09:55:18;12.30;99.90
32839;DHT22;19182;41.820;12.808;2023-04-08T09:58:00;12.30;99.90
32839;DHT22;19182;41.820;12.808;2023-04-08T10:00:48;12.40;99.90
32839;DHT22;19182;41.820;12.808;2023-04-08T10:05:49;12.30;99.90
32839;DHT22;19182;41.820;12.808;2023-04-08T10:08:17;12.50;99.90
32839;DHT22;19182;41.820;12.808;2023-04-08T10:10:43;12.40;99.90
32839;DHT22;19182;41.820;12.808;2023-04-08T10:13:10;12.20;99.90
32839;DHT22;19182;41.820;12.808;2023-04-08T10:15:36;12.60;99.90
32839;DHT22;19182;41.820;12.808;2023-04-08T10:23:09;10.70;99.90
32839;DHT22;19182;41.820;12.808;2023-04-08T10:25:45;13.30;99.90
32839;DHT22;19182;41.820;12.808;2023-04-08T10:30:50;13.30;99.90
32839;DHT22;19182;41.820;12.808;2023-04-08T10:33:20;13.00;99.90
32839;DHT22;19182;41.820;12.808;2023-04-08T10:36:00;12.90;99.90
32839;DHT22;19182;41.820;12.808;2023-04-08T10:38:42;13.50;99.90
32839;DHT22;19182;41.820;12.808;2023-04-08T10:41:13;13.40;99.90
32839;DHT22;19182;41.820;12.808;2023-04-08T10:43:49;13.60;99.90
32839;DHT22;19182;41.820;12.808;2023-04-08T10:46:15;13.50;99.90
32839;DHT22;19182;41.820;12.808;2023-04-08T10:48:41;13.70;99.90
32839;DHT22;19182;41.820;12.808;2023-04-08T10:51:07;13.50;99.90
32839;DHT22;19182;41.820;12.808;2023-04-08T10:53:37;13.50;99.90
32839;DHT22;19182;41.820;12.808;2023-04-08T10:56:11;13.60;99.90
32839;DHT22;19182;41.820;12.808;2023-04-08T10:58:53;13.40;99.90
32839;DHT22;19182;41.820;12.808;2023-04-08T11:01:22;12.50;99.90
32839;DHT22;19182;41.820;12.808;2023-04-08T11:03:49;11.60;99.90
32839;DHT22;19182;41.820;12.808;2023-04-08T11:06:19;11.50;99.90
32839;DHT22;19182;41.820;12.808;2023-04-08T11:08:45;11.60;99.90
32839;DHT22;19182;41.820;12.808;2023-04-08T11:11:11;11.40;99.90
32839;DHT22;19182;41.820;12.808;2023-04-08T11:13:44;11.20;99.90
32839;DHT22;19182;41.820;12.808;2023-04-08T11:16:11;10.90;99.90
32839;DHT22;19182;41.820;12.808;2023-04-08T11:18:39;11.00;99.90
32839;DHT22;19182;41.820;12.808;2023-04-08T11:21:09;10.80;99.90
32839;DHT22;19182;41.820;12.808;2023-04-08T11:23:36;10.70;99.90
32839;DHT22;19182;41.820;12.808;2023-04-08T11:26:02;10.70;99.90
32839;DHT22;19182;41.820;12.808;2023-04-08T11:28:30;10.60;99.90
32839;DHT22;19182;41.820;12.808;2023-04-08T11:30:58;10.60;99.90
32839;DHT22;19182;41.820;12.808;2023-04-08T11:33:26;10.40;99.90
32839;DHT22;19182;41.820;12.808;2023-04-08T11:35:51;10.30;99.90
32839;DHT22;19182;41.820;12.808;2023-04-08T11:38:23;10.40;99.90
32839;DHT22;19182;41.820;12.808;2023-04-08T11:40:53;10.20;99.90
32839;DHT22;19182;41.820;12.808;2023-04-08T11:43:21;10.20;99.90
32839;DHT22;19182;41.820;12.808;2023-04-08T11:45:47;10.10;99.90
32839;DHT22;19182;41.820;12.808;2023-04-08T11:48:15;9.90;99.90
32839;DHT22;19182;41.820;12.808;2023-04-08T11:50:43;9.90;99.90
32839;DHT22;19182;41.820;12.808;2023-04-08T11:55:42;9.70;99.90
32839;DHT22;19182;41.820;12.808;2023-04-08T11:58:08;9.60;99.90
32839;DHT22;19182;41.820;12.808;2023-04-08T12:00:35;9.60;99.90
32839;DHT22;19182;41.820;12.808;2023-04-08T12:03:01;9.50;99.90
32839;DHT22;19182;41.820;12.808;2023-04-08T12:07:53;9.30;99.90
32839;DHT22;19182;41.820;12.808;2023-04-08T12:10:19;9.30;99.90
32839;DHT22;19182;41.820;12.808;2023-04-08T12:12:45;9.20;99.90
32839;DHT22;19182;41.820;12.808;2023-04-08T12:15:11;9.30;99.90
32839;DHT22;19182;41.820;12.808;2023-04-08T12:17:37;9.40;99.90
32839;DHT22;19182;41.820;12.808;2023-04-08T12:20:07;9.50;99.90
32839;DHT22;19182;41.820;12.808;2023-04-08T12:22:33;9.50;99.90
32839;DHT22;19182;41.820;12.808;2023-04-08T12:24:59;9.50;99.90
32839;DHT22;19182;41.820;12.808;2023-04-08T12:27:26;9.80;99.90
32839;DHT22;19182;41.820;12.808;2023-04-08T12:29:52;9.90;99.90
32839;DHT22;19182;41.820;12.808;2023-04-08T12:32:19;9.80;99.90
32839;DHT22;19182;41.820;12.808;2023-04-08T12:34:44;9.90;99.90
32839;DHT22;19182;41.820;12.808;2023-04-08T12:37:11;9.80;99.90
32839;DHT22;19182;41.820;12.808;2023-04-08T12:39:38;10.00;99.90
32839;DHT22;19182;41.820;12.808;2023-04-08T12:44:30;10.20;99.90
32839;DHT22;19182;41.820;12.808;2023-04-08T12:46:56;10.30;99.90
32839;DHT22;19182;41.820;12.808;2023-04-08T12:49:24;10.40;99.90
32839;DHT22;19182;41.820;12.808;2023-04-08T12:51:50;10.20;99.90
32839;DHT22;19182;41.820;12.808;2023-04-08T12:54:17;10.20;99.90
32839;DHT22;19182;41.820;12.808;2023-04-08T12:56:43;10.30;99.90
32839;DHT22;19182;41.820;12.808;2023-04-08T12:59:10;10.40;99.90
32839;DHT22;19182;41.820;12.808;2023-04-08T13:04:02;10.80;99.90
32839;DHT22;19182;41.820;12.808;2023-04-08T13:06:28;10.60;99.90
32839;DHT22;19182;41.820;12.808;2023-04-08T13:08:54;10.50;99.90
32839;DHT22;19182;41.820;12.808;2023-04-08T13:11:20;10.50;99.90
32839;DHT22;19182;41.820;12.808;2023-04-08T13:13:46;10.70;99.90
32839;DHT22;19182;41.820;12.808;2023-04-08T13:16:12;10.80;99.90
32839;DHT22;19182;41.820;12.808;2023-04-08T13:18:43;10.80;99.90
32839;DHT22;19182;41.820;12.808;2023-04-08T13:21:09;10.60;99.90
32839;DHT22;19182;41.820;12.808;2023-04-08T13:23:35;10.60;99.90
32839;DHT22;19182;41.820;12.808;2023-04-08T13:26:03;10.70;99.90
32839;DHT22;19182;41.820;12.808;2023-04-08T13:28:29;11.00;99.90
32839;DHT22;19182;41.820;12.808;2023-04-08T13:30:55;11.20;99.90
32839;DHT22;19182;41.820;12.808;2023-04-08T13:33:22;11.20;99.90
32839;DHT22;19182;41.820;12.808;2023-04-08T13:35:49;11.50;99.90
32839;DHT22;19182;41.820;12.808;2023-04-08T13:38:15;11.60;99.90
32839;DHT22;19182;41.820;12.808;2023-04-08T13:40:42;11.40;99.90
32839;DHT22;19182;41.820;12.808;2023-04-08T13:43:08;11.70;99.90
32839;DHT22;19182;41.820;12.808;2023-04-08T13:45:34;11.70;99.90
32839;DHT22;19182;41.820;12.808;2023-04-08T13:48:00;12.20;99.90
32839;DHT22;19182;41.820;12.808;2023-04-08T13:50:26;12.00;99.90
32839;DHT22;19182;41.820;12.808;2023-04-08T13:52:52;12.20;99.90
32839;DHT22;19182;41.820;12.808;2023-04-08T13:55:17;12.00;99.90
32839;DHT22;19182;41.820;12.808;2023-04-08T13:57:43;12.00;99.90
32839;DHT22;19182;41.820;12.808;2023-04-08T14:00:10;12.40;99.90
32839;DHT22;19182;41.820;12.808;2023-04-08T14:02:36;12.40;99.90
32839;DHT22;19182;41.820;12.808;2023-04-08T14:05:02;12.50;99.90
32839;DHT22;19182;41.820;12.808;2023-04-08T14:07:28;12.40;99.90
32839;DHT22;19182;41.820;12.808;2023-04-08T14:09:54;11.50;99.90
32839;DHT22;19182;41.820;12.808;2023-04-08T14:12:20;12.60;99.90
32839;DHT22;19182;41.820;12.808;2023-04-08T14:14:48;12.20;99.90
32839;DHT22;19182;41.820;12.808;2023-04-08T14:17:14;12.50;99.90
32839;DHT22;19182;41.820;12.808;2023-04-08T14:19:40;12.60;99.90
32839;DHT22;19182;41.820;12.808;2023-04-08T14:22:06;12.90;99.90
32839;DHT22;19182;41.820;12.808;2023-04-08T14:26:59;12.90;99.90
32839;DHT22;19182;41.820;12.808;2023-04-08T14:29:25;12.70;99.90
32839;DHT22;19182;41.820;12.808;2023-04-08T14:31:51;12.40;99.90
32839;DHT22;19182;41.820;12.808;2023-04-08T14:34:17;10.50;99.90
32839;DHT22;19182;41.820;12.808;2023-04-08T14:36:44;12.50;99.90
32839;DHT22;19182;41.820;12.808;2023-04-08T14:39:10;12.40;99.90
32839;DHT22;19182;41.820;12.808;2023-04-08T14:41:37;12.40;99.90
32839;DHT22;19182;41.820;12.808;2023-04-08T14:44:05;12.40;99.90
32839;DHT22;19182;41.820;12.808;2023-04-08T14:46:30;12.20;99.90
32839;DHT22;19182;41.820;12.808;2023-04-08T14:48:57;12.00;99.90
32839;DHT22;19182;41.820;12.808;2023-04-08T14:51:25;12.10;99.90
32839;DHT22;19182;41.820;12.808;2023-04-08T14:53:51;11.90;99.90
32839;DHT22;19182;41.820;12.808;2023-04-08T14:56:17;11.50;99.90
32839;DHT22;19182;41.820;12.808;2023-04-08T14:58:42;10.30;99.90
32839;DHT22;19182;41.820;12.808;2023-04-08T15:01:08;11.70;99.90
32839;DHT22;19182;41.820;12.808;2023-04-08T15:03:37;11.50;99.90
32839;DHT22;19182;41.820;12.808;2023-04-08T15:06:03;11.60;99.90
32839;DHT22;19182;41.820;12.808;2023-04-08T15:08:29;11.60;99.90
32839;DHT22;19182;41.820;12.808;2023-04-08T15:10:55;11.80;99.90
32839;DHT22;19182;41.820;12.808;2023-04-08T15:13:21;11.60;99.90
32839;DHT22;19182;41.820;12.808;2023-04-08T15:15:47;11.50;99.90
32839;DHT22;19182;41.820;12.808;2023-04-08T15:18:13;11.40;99.90
32839;DHT22;19182;41.820;12.808;2023-04-08T15:20:40;11.50;99.90
32839;DHT22;19182;41.820;12.808;2023-04-08T15:25:34;11.50;99.90
32839;DHT22;19182;41.820;12.808;2023-04-08T15:28:00;11.60;99.90
32839;DHT22;19182;41.820;12.808;2023-04-08T15:30:27;11.50;99.90
32839;DHT22;19182;41.820;12.808;2023-04-08T15:33:00;11.50;99.90
32839;DHT22;19182;41.820;12.808;2023-04-08T15:35:26;11.40;99.90
32839;DHT22;19182;41.820;12.808;2023-04-08T15:37:52;11.40;99.90
32839;DHT22;19182;41.820;12.808;2023-04-08T15:40:18;11.20;99.90
32839;DHT22;19182;41.820;12.808;2023-04-08T15:42:44;11.20;99.90
32839;DHT22;19182;41.820;12.808;2023-04-08T15:47:37;10.90;99.90
32839;DHT22;19182;41.820;12.808;2023-04-08T15:52:31;10.90;99.90
32839;DHT22;19182;41.820;12.808;2023-04-08T15:54:57;10.80;99.90
32839;DHT22;19182;41.820;12.808;2023-04-08T15:57:22;10.90;99.90
32839;DHT22;19182;41.820;12.808;2023-04-08T15:59:51;10.90;99.90
32839;DHT22;19182;41.820;12.808;2023-04-08T16:04:46;10.80;99.90
32839;DHT22;19182;41.820;12.808;2023-04-08T16:07:12;10.70;99.90
32839;DHT22;19182;41.820;12.808;2023-04-08T16:09:38;10.70;99.90
32839;DHT22;19182;41.820;12.808;2023-04-08T16:12:04;10.80;99.90
32839;DHT22;19182;41.820;12.808;2023-04-08T16:14:31;10.80;99.90
32839;DHT22;19182;41.820;12.808;2023-04-08T16:16:58;10.90;99.90
32839;DHT22;19182;41.820;12.808;2023-04-08T16:19:24;10.90;99.90
32839;DHT22;19182;41.820;12.808;2023-04-08T16:21:50;10.80;99.90
32839;DHT22;19182;41.820;12.808;2023-04-08T16:24:16;11.00;99.90
32839;DHT22;19182;41.820;12.808;2023-04-08T16:26:46;10.90;99.90
32839;DHT22;19182;41.820;12.808;2023-04-08T16:29:12;10.80;99.90
32839;DHT22;19182;41.820;12.808;2023-04-08T16:31:38;10.60;99.90
32839;DHT22;19182;41.820;12.808;2023-04-08T16:34:04;10.60;99.90
32839;DHT22;19182;41.820;12.808;2023-04-08T16:36:30;10.70;99.90